Time;durP1;ratioP1;P1;durP2;ratioP2;P2;SDS_P1;SDS_P2;PMS_P1;PMS_P2;Temp;Humidity;BMP_temperature;BMP_pressure;BME280_temperature;BME280_humidity;BME280_pressure;Samples;Min_cycle;Max_cycle;Signal;HPM_P1;HPM_P2
2021/10/28 00:14:07;;;;;;;15.05;7.95;;;;;;;;;;4993474;28;20526;-67
2021/10/28 00:16:34;;;;;;;12.93;7.38;;;;;;;;;;4985277;28;20054;-67
2021/10/28 00:19:03;;;;;;;15.60;7.35;;;;;;;;;;4996239;28;20045;-67
2021/10/28 00:21:31;;;;;;;14.30;7.80;;;;;;;;;;4995411;28;20153;-68
2021/10/28 00:24:02;;;;;;;14.05;7.93;;;;;;;;;;4998128;28;20046;-68
2021/10/28 00:26:30;;;;;;;15.38;8.05;;;;;;;;;;5001099;28;20080;-68
2021/10/28 00:28:58;;;;;;;13.00;7.00;;;;;;;;;;5002904;28;20096;-68
2021/10/28 00:31:25;;;;;;;11.77;6.13;;;;;;;;;;4995665;28;20038;-68
2021/10/28 00:33:51;;;;;;;12.02;6.60;;;;;;;;;;4999621;28;20119;-68
2021/10/28 00:36:18;;;;;;;14.25;7.38;;;;;;;;;;4986926;28;20053;-69
2021/10/28 00:38:44;;;;;;;13.80;7.13;;;;;;;;;;4999280;28;20057;-69
2021/10/28 00:41:11;;;;;;;12.32;6.50;;;;;;;;;;4994897;28;20840;-68
2021/10/28 00:43:49;;;;;;;14.32;7.93;;;;;;;;;;4998266;28;20065;-68
2021/10/28 00:46:16;;;;;;;11.55;6.28;;;;;;;;;;4999697;28;20046;-68
2021/10/28 00:48:44;;;;;;;13.23;6.72;;;;;;;;;;4991450;28;20053;-68
2021/10/28 00:51:10;;;;;;;11.93;7.07;;;;;;;;;;4993937;28;20054;-69
2021/10/28 00:53:37;;;;;;;15.45;7.40;;;;;;;;;;4991582;28;20054;-68
2021/10/28 00:56:05;;;;;;;12.23;7.25;;;;;;;;;;5001040;28;20060;-68
2021/10/28 00:58:32;;;;;;;11.77;7.00;;;;;;;;;;4994456;28;20054;-68
2021/10/28 01:01:00;;;;;;;11.60;5.95;;;;;;;;;;5001426;28;20061;-68
2021/10/28 01:03:27;;;;;;;10.30;7.22;;;;;;;;;;4999806;28;20056;-69
2021/10/28 01:05:53;;;;;;;11.20;7.35;;;;;;;;;;4995066;28;20053;-69
2021/10/28 01:08:20;;;;;;;12.02;6.78;;;;;;;;;;4998752;28;20053;-68
2021/10/28 01:10:47;;;;;;;13.57;6.97;;;;;;;;;;4993836;28;20057;-68
2021/10/28 01:13:17;;;;;;;14.57;7.95;;;;;;;;;;4996683;28;20048;-69
2021/10/28 01:15:44;;;;;;;13.02;6.97;;;;;;;;;;4988718;28;20045;-68
2021/10/28 01:18:11;;;;;;;12.82;6.55;;;;;;;;;;5000398;28;20057;-68
2021/10/28 01:20:41;;;;;;;12.73;7.22;;;;;;;;;;5001287;28;20072;-68
2021/10/28 01:23:13;;;;;;;12.77;6.57;;;;;;;;;;4997752;28;20765;-68
2021/10/28 01:25:40;;;;;;;12.10;6.63;;;;;;;;;;4995828;28;20057;-68
2021/10/28 01:28:07;;;;;;;11.52;6.63;;;;;;;;;;4989683;28;20046;-69
2021/10/28 01:30:33;;;;;;;11.43;6.85;;;;;;;;;;5000041;28;20050;-68
2021/10/28 01:33:00;;;;;;;11.48;6.78;;;;;;;;;;4994252;28;20058;-68
2021/10/28 01:35:27;;;;;;;15.77;7.00;;;;;;;;;;4997829;28;20045;-68
2021/10/28 01:37:54;;;;;;;10.80;6.43;;;;;;;;;;4992494;28;20093;-68
2021/10/28 01:40:20;;;;;;;11.40;6.53;;;;;;;;;;4995416;28;20058;-68
2021/10/28 01:42:48;;;;;;;11.95;6.75;;;;;;;;;;4992935;28;21221;-68
2021/10/28 01:45:14;;;;;;;10.30;6.80;;;;;;;;;;4990860;28;20164;-68
2021/10/28 01:47:41;;;;;;;11.40;6.35;;;;;;;;;;5000751;28;20050;-68
2021/10/28 01:50:08;;;;;;;11.27;7.18;;;;;;;;;;4989837;28;20407;-68
2021/10/28 01:52:37;;;;;;;10.13;6.43;;;;;;;;;;4997641;28;20049;-68
2021/10/28 01:55:09;;;;;;;15.30;6.93;;;;;;;;;;4993198;28;20466;-68
2021/10/28 01:57:35;;;;;;;12.35;7.63;;;;;;;;;;4997532;28;20506;-68
2021/10/28 02:00:03;;;;;;;15.20;7.32;;;;;;;;;;4999333;28;20053;-68
2021/10/28 02:02:29;;;;;;;11.75;6.80;;;;;;;;;;4993939;28;20060;-68
2021/10/28 02:04:56;;;;;;;12.45;6.70;;;;;;;;;;4992545;28;20050;-68
2021/10/28 02:07:23;;;;;;;11.35;6.38;;;;;;;;;;4988743;28;20053;-69
2021/10/28 02:09:49;;;;;;;11.00;7.18;;;;;;;;;;4999556;28;20053;-68
2021/10/28 02:12:15;;;;;;;10.38;6.20;;;;;;;;;;4993645;28;20045;-68
2021/10/28 02:14:41;;;;;;;13.32;6.75;;;;;;;;;;4997603;28;20053;-68
2021/10/28 02:17:08;;;;;;;9.57;6.53;;;;;;;;;;4998612;28;20139;-68
2021/10/28 02:19:34;;;;;;;12.27;6.90;;;;;;;;;;4984798;28;20439;-68
2021/10/28 02:22:00;;;;;;;14.88;6.57;;;;;;;;;;4997603;28;20057;-68
2021/10/28 02:24:29;;;;;;;9.65;6.20;;;;;;;;;;4992556;28;20058;-68
2021/10/28 02:26:55;;;;;;;13.07;6.43;;;;;;;;;;5000570;28;20060;-68
2021/10/28 02:29:22;;;;;;;10.00;6.70;;;;;;;;;;4993800;28;20065;-68
2021/10/28 02:31:48;;;;;;;11.38;6.72;;;;;;;;;;4984703;28;20418;-68
2021/10/28 02:34:15;;;;;;;10.98;6.82;;;;;;;;;;4994110;28;20075;-68
2021/10/28 02:36:41;;;;;;;12.50;7.10;;;;;;;;;;4991548;28;20047;-68
2021/10/28 02:39:08;;;;;;;12.02;6.63;;;;;;;;;;4998040;28;20050;-69
2021/10/28 02:41:35;;;;;;;11.90;6.53;;;;;;;;;;4991175;28;20053;-68
2021/10/28 02:44:01;;;;;;;11.57;6.70;;;;;;;;;;4996343;28;20049;-68
2021/10/28 02:46:29;;;;;;;11.68;6.82;;;;;;;;;;4988862;28;20053;-69
2021/10/28 02:48:55;;;;;;;11.23;7.10;;;;;;;;;;4993874;28;20156;-69
2021/10/28 02:51:21;;;;;;;15.50;7.63;;;;;;;;;;5000203;28;20060;-69
2021/10/28 02:53:48;;;;;;;14.50;7.28;;;;;;;;;;4992187;28;20051;-69
2021/10/28 02:56:14;;;;;;;12.63;7.95;;;;;;;;;;4998574;28;20243;-69
2021/10/28 02:58:40;;;;;;;16.95;8.98;;;;;;;;;;4992522;28;20049;-68
2021/10/28 03:01:07;;;;;;;13.95;9.00;;;;;;;;;;4993374;28;20045;-69
2021/10/28 03:03:38;;;;;;;17.55;8.63;;;;;;;;;;4994574;28;20526;-69
2021/10/28 03:06:05;;;;;;;16.33;9.57;;;;;;;;;;5000707;28;20060;-69
2021/10/28 03:08:32;;;;;;;19.27;10.52;;;;;;;;;;5003416;28;20053;-69
2021/10/28 03:11:00;;;;;;;16.60;8.95;;;;;;;;;;4994997;28;20053;-68
2021/10/28 03:13:28;;;;;;;19.95;10.50;;;;;;;;;;4996937;28;20058;-68
2021/10/28 03:15:55;;;;;;;21.10;10.35;;;;;;;;;;4995050;28;20052;-68
2021/10/28 03:26:36;;;;;;;24.38;9.95;;;;;;;;;;4987422;28;20042;-68
2021/10/28 03:29:02;;;;;;;19.00;10.90;;;;;;;;;;4995913;28;20050;-68
2021/10/28 03:31:29;;;;;;;22.23;11.52;;;;;;;;;;5001998;28;20054;-68
2021/10/28 03:34:01;;;;;;;17.40;9.65;;;;;;;;;;4992006;28;20719;-68
2021/10/28 03:36:42;;;;;;;18.30;9.80;;;;;;;;;;5000369;28;20053;-68
2021/10/28 03:39:24;;;;;;;16.92;10.15;;;;;;;;;;4993209;28;20042;-68
2021/10/28 03:52:56;;;;;;;18.52;10.07;;;;;;;;;;4997488;28;20080;-67
2021/10/28 04:04:03;;;;;;;18.48;10.00;;;;;;;;;;5000001;28;20485;-68
2021/10/28 04:29:55;;;;;;;17.00;9.88;;;;;;;;;;4992641;28;20461;-68
2021/10/28 04:32:21;;;;;;;25.27;10.80;;;;;;;;;;4998794;28;21185;-68
2021/10/28 04:34:48;;;;;;;23.15;10.93;;;;;;;;;;4992980;28;20080;-68
2021/10/28 04:37:14;;;;;;;21.55;10.27;;;;;;;;;;4984109;28;20050;-68
2021/10/28 04:39:41;;;;;;;21.08;10.85;;;;;;;;;;4997161;28;20124;-68
2021/10/28 04:42:08;;;;;;;21.10;10.85;;;;;;;;;;4990762;28;20054;-68
2021/10/28 04:44:34;;;;;;;18.13;10.50;;;;;;;;;;4999154;28;20055;-68
2021/10/28 04:47:00;;;;;;;21.10;10.43;;;;;;;;;;4991201;28;20046;-68
2021/10/28 04:49:27;;;;;;;18.42;10.77;;;;;;;;;;4993578;28;20049;-68
2021/10/28 04:51:53;;;;;;;19.92;10.80;;;;;;;;;;4987218;28;20046;-68
2021/10/28 04:54:20;;;;;;;22.73;11.65;;;;;;;;;;4999307;28;20052;-68
2021/10/28 04:56:46;;;;;;;28.92;10.18;;;;;;;;;;5000353;28;20486;-68
2021/10/28 04:59:13;;;;;;;22.00;9.88;;;;;;;;;;4989797;28;20058;-68
2021/10/28 05:01:39;;;;;;;25.30;10.50;;;;;;;;;;4997981;28;20046;-68
2021/10/28 05:04:06;;;;;;;21.17;10.45;;;;;;;;;;4983800;28;20077;-67
2021/10/28 05:06:32;;;;;;;19.63;10.40;;;;;;;;;;4997890;28;20396;-67
2021/10/28 05:08:58;;;;;;;21.38;10.88;;;;;;;;;;4992920;28;20053;-68
2021/10/28 05:11:27;;;;;;;18.98;11.20;;;;;;;;;;4997425;28;20254;-67
2021/10/28 05:13:53;;;;;;;21.80;11.65;;;;;;;;;;4998417;28;20045;-68
2021/10/28 05:16:21;;;;;;;20.65;10.82;;;;;;;;;;4986378;28;20057;-68
2021/10/28 05:18:47;;;;;;;20.42;11.18;;;;;;;;;;4996175;28;20054;-68
2021/10/28 05:21:14;;;;;;;23.77;10.95;;;;;;;;;;4990323;28;20050;-68
2021/10/28 05:23:41;;;;;;;18.60;10.25;;;;;;;;;;4998239;28;20501;-68
2021/10/28 05:26:08;;;;;;;23.60;11.07;;;;;;;;;;4990590;28;20522;-68
2021/10/28 05:28:34;;;;;;;20.13;10.93;;;;;;;;;;4996886;28;20454;-68
2021/10/28 05:31:01;;;;;;;28.83;12.30;;;;;;;;;;4996095;28;20062;-68
2021/10/28 05:33:27;;;;;;;20.13;9.93;;;;;;;;;;4987843;28;20587;-67
2021/10/28 05:35:54;;;;;;;18.05;10.30;;;;;;;;;;4999399;28;20046;-67
2021/10/28 05:38:20;;;;;;;17.92;10.95;;;;;;;;;;4993092;28;20053;-68
2021/10/28 05:40:47;;;;;;;22.48;11.38;;;;;;;;;;4999687;28;20545;-68
2021/10/28 05:43:13;;;;;;;23.63;11.85;;;;;;;;;;4990992;28;20056;-68
2021/10/28 05:45:40;;;;;;;28.25;11.80;;;;;;;;;;4991774;28;20058;-68
2021/10/28 05:48:06;;;;;;;23.02;11.90;;;;;;;;;;4993390;28;20130;-68
2021/10/28 05:50:33;;;;;;;20.77;11.48;;;;;;;;;;4989147;28;20072;-68
2021/10/28 05:53:00;;;;;;;23.08;11.20;;;;;;;;;;4999603;28;20042;-67
2021/10/28 05:55:27;;;;;;;21.17;11.55;;;;;;;;;;4975004;28;20492;-67
2021/10/28 05:57:53;;;;;;;25.98;12.02;;;;;;;;;;4995861;28;20057;-67
2021/10/28 06:00:21;;;;;;;19.60;10.73;;;;;;;;;;4983358;28;20054;-67
2021/10/28 06:02:48;;;;;;;21.60;11.85;;;;;;;;;;4997458;28;20054;-67
2021/10/28 06:05:15;;;;;;;23.67;11.60;;;;;;;;;;4981228;28;20045;-68
2021/10/28 06:07:42;;;;;;;28.75;11.10;;;;;;;;;;4987668;28;20065;-67
2021/10/28 06:10:09;;;;;;;24.00;13.07;;;;;;;;;;4997296;28;20061;-67
2021/10/28 06:12:44;;;;;;;19.05;10.38;;;;;;;;;;4985246;28;20058;-67
2021/10/28 06:15:12;;;;;;;19.75;9.93;;;;;;;;;;4993369;28;20056;-68
2021/10/28 06:17:47;;;;;;;21.85;11.43;;;;;;;;;;4989211;28;20061;-68
2021/10/28 06:20:14;;;;;;;24.17;10.80;;;;;;;;;;4993710;28;20069;-68
2021/10/28 06:22:40;;;;;;;23.23;11.55;;;;;;;;;;4990355;28;20464;-68
2021/10/28 06:25:07;;;;;;;21.52;10.38;;;;;;;;;;4998643;28;20056;-67
2021/10/28 06:27:33;;;;;;;22.65;11.10;;;;;;;;;;4992353;28;20479;-67
2021/10/28 06:30:00;;;;;;;22.60;10.88;;;;;;;;;;4989175;28;20062;-67
2021/10/28 06:32:26;;;;;;;25.70;11.48;;;;;;;;;;4997128;28;20588;-67
2021/10/28 06:34:52;;;;;;;24.38;11.40;;;;;;;;;;4988799;28;20050;-67
2021/10/28 06:37:19;;;;;;;24.23;11.25;;;;;;;;;;4998271;28;20056;-67
2021/10/28 06:39:46;;;;;;;26.73;11.43;;;;;;;;;;4983113;28;20210;-67
2021/10/28 06:42:13;;;;;;;23.63;12.63;;;;;;;;;;4988133;28;20046;-67
2021/10/28 06:44:40;;;;;;;21.58;11.93;;;;;;;;;;4995001;28;20050;-67
2021/10/28 06:47:07;;;;;;;25.45;12.02;;;;;;;;;;4989755;28;20046;-67
2021/10/28 06:49:36;;;;;;;27.67;12.52;;;;;;;;;;4997355;28;20056;-67
2021/10/28 06:52:04;;;;;;;35.40;11.90;;;;;;;;;;4987527;28;20185;-67
2021/10/28 06:54:38;;;;;;;22.27;11.13;;;;;;;;;;4991562;28;20045;-69
2021/10/28 07:02:37;;;;;;;25.35;11.75;;;;;;;;;;4988007;28;20560;-69
2021/10/28 07:05:05;;;;;;;22.80;10.80;;;;;;;;;;4998473;28;20064;-69
2021/10/28 07:07:33;;;;;;;21.00;10.90;;;;;;;;;;4994038;28;20053;-69
2021/10/28 07:10:10;;;;;;;28.08;12.45;;;;;;;;;;4984629;28;20054;-69
2021/10/28 07:12:54;;;;;;;27.08;13.27;;;;;;;;;;4997263;28;20054;-69
2021/10/28 07:15:26;;;;;;;26.67;13.30;;;;;;;;;;4983118;28;20073;-69
2021/10/28 07:18:06;;;;;;;23.80;11.68;;;;;;;;;;4998285;28;20418;-69
2021/10/28 07:34:53;;;;;;;25.33;11.10;;;;;;;;;;4947802;28;20054;-68
2021/10/28 08:31:05;;;;;;;25.67;12.25;;;;;;;;;;4993713;28;20058;-69
2021/10/28 08:33:32;;;;;;;23.50;10.52;;;;;;;;;;4996142;28;20064;-68
2021/10/28 08:36:07;;;;;;;22.15;11.85;;;;;;;;;;4993627;28;20053;-69
2021/10/28 08:38:34;;;;;;;23.02;11.77;;;;;;;;;;4999480;28;20050;-69
2021/10/28 08:41:02;;;;;;;25.10;12.38;;;;;;;;;;4994168;28;20062;-69
2021/10/28 08:43:30;;;;;;;30.50;11.68;;;;;;;;;;4999593;28;20060;-69
2021/10/28 08:46:00;;;;;;;29.10;11.85;;;;;;;;;;4988568;28;20538;-69
2021/10/28 08:48:28;;;;;;;34.13;11.73;;;;;;;;;;4995926;28;20054;-69
2021/10/28 08:51:16;;;;;;;24.20;11.20;;;;;;;;;;4983901;28;20046;-69
2021/10/28 08:56:56;;;;;;;26.88;13.20;;;;;;;;;;4996881;28;20053;-68
2021/10/28 08:59:42;;;;;;;27.63;12.27;;;;;;;;;;4994032;28;20157;-69
2021/10/28 09:24:40;;;;;;;21.80;11.13;;;;;;;;;;4999885;28;20483;-69
2021/10/28 09:51:33;;;;;;;22.30;10.80;;;;;;;;;;4997090;28;20069;-69
2021/10/28 09:59:34;;;;;;;24.50;11.45;;;;;;;;;;4992185;28;20057;-69
2021/10/28 10:02:12;;;;;;;26.40;11.98;;;;;;;;;;4999457;28;20077;-69
2021/10/28 10:04:44;;;;;;;22.80;10.32;;;;;;;;;;4987359;28;20116;-69
2021/10/28 10:07:12;;;;;;;25.30;12.88;;;;;;;;;;4996813;28;20053;-69
2021/10/28 10:09:38;;;;;;;24.00;12.20;;;;;;;;;;4992869;28;20049;-70
2021/10/28 10:12:06;;;;;;;26.60;12.18;;;;;;;;;;4971035;28;20231;-68
2021/10/28 10:14:33;;;;;;;26.55;11.95;;;;;;;;;;4999259;28;20053;-68
2021/10/28 10:17:00;;;;;;;24.98;11.88;;;;;;;;;;4991644;28;20054;-70
2021/10/28 10:19:33;;;;;;;22.52;11.35;;;;;;;;;;4998735;28;20432;-70
2021/10/28 10:22:14;;;;;;;25.92;11.40;;;;;;;;;;4987756;28;20057;-68
2021/10/28 11:16:04;;;;;;;22.90;11.70;;;;;;;;;;4973697;28;20273;-69
2021/10/28 11:30:43;;;;;;;23.73;12.15;;;;;;;;;;4992784;28;20495;-68
2021/10/28 11:32:57;;;;;;;26.77;12.80;;;;;;;;;;4992772;28;20466;-68
2021/10/28 12:25:21;;;;;;;27.67;14.73;;;;;;;;;;4995377;28;20046;-68
2021/10/28 13:36:18;;;;;;;15.90;9.75;;;;;;;;;;4985013;28;20057;-69
2021/10/28 13:58:27;;;;;;;15.30;7.72;;;;;;;;;;4990386;28;20049;-70
2021/10/28 15:29:38;;;;;;;16.45;6.53;;;;;;;;;;4988585;28;20057;-69
2021/10/28 15:37:51;;;;;;;12.30;6.35;;;;;;;;;;5000978;28;20066;-70
2021/10/28 15:49:46;;;;;;;15.15;7.82;;;;;;;;;;5001555;28;20054;-70
2021/10/28 15:57:13;;;;;;;13.10;7.05;;;;;;;;;;4988105;28;20054;-70
2021/10/28 15:59:58;;;;;;;13.27;7.28;;;;;;;;;;4996853;28;20054;-70
2021/10/28 16:21:55;;;;;;;15.85;7.82;;;;;;;;;;4987083;28;20050;-70
2021/10/28 16:24:22;;;;;;;14.85;8.20;;;;;;;;;;4999276;28;20162;-70
2021/10/28 16:26:50;;;;;;;13.70;7.87;;;;;;;;;;4997080;28;20041;-71
2021/10/28 16:29:17;;;;;;;15.48;8.25;;;;;;;;;;4998833;28;20057;-70
2021/10/28 16:31:44;;;;;;;14.70;6.95;;;;;;;;;;4994256;28;20042;-70
2021/10/28 16:34:10;;;;;;;17.02;8.40;;;;;;;;;;5001364;28;20070;-70
2021/10/28 16:36:37;;;;;;;15.77;8.45;;;;;;;;;;4979730;28;20054;-70
2021/10/28 16:39:08;;;;;;;17.58;9.23;;;;;;;;;;4998118;28;20050;-71
2021/10/28 16:41:36;;;;;;;19.95;9.35;;;;;;;;;;5001581;28;20050;-71
2021/10/28 16:44:03;;;;;;;18.20;9.35;;;;;;;;;;4992941;28;20058;-71
2021/10/28 16:46:31;;;;;;;15.35;8.77;;;;;;;;;;4997907;28;20046;-70
2021/10/28 16:48:57;;;;;;;16.27;8.57;;;;;;;;;;4986583;28;20046;-70
2021/10/28 16:51:27;;;;;;;16.30;8.88;;;;;;;;;;4994084;28;20116;-70
2021/10/28 16:53:54;;;;;;;14.73;8.40;;;;;;;;;;4988601;28;20049;-70
2021/10/28 16:56:20;;;;;;;16.73;8.60;;;;;;;;;;4997300;28;20050;-71
2021/10/28 16:58:49;;;;;;;17.30;8.25;;;;;;;;;;4999031;28;20054;-71
2021/10/28 17:01:15;;;;;;;16.15;7.95;;;;;;;;;;4992062;28;20291;-71
2021/10/28 17:03:42;;;;;;;18.52;8.23;;;;;;;;;;4993156;28;20058;-72
2021/10/28 17:06:12;;;;;;;14.57;8.40;;;;;;;;;;4985680;28;20426;-71
2021/10/28 17:08:40;;;;;;;15.38;8.38;;;;;;;;;;4999256;28;20050;-71
2021/10/28 17:11:07;;;;;;;19.05;8.50;;;;;;;;;;4991245;28;20050;-70
2021/10/28 17:13:33;;;;;;;18.67;8.48;;;;;;;;;;4998272;28;20054;-71
2021/10/28 17:16:01;;;;;;;16.23;8.93;;;;;;;;;;4999122;28;20046;-71
2021/10/28 17:18:27;;;;;;;17.00;8.57;;;;;;;;;;4983709;28;20050;-71
2021/10/28 17:20:57;;;;;;;19.13;9.48;;;;;;;;;;4993401;28;20149;-71
2021/10/28 17:23:31;;;;;;;16.25;9.13;;;;;;;;;;4988084;28;20045;-71
2021/10/28 17:25:59;;;;;;;22.70;9.18;;;;;;;;;;4998686;28;20042;-71
2021/10/28 17:28:26;;;;;;;16.73;9.80;;;;;;;;;;4989219;28;20053;-71
2021/10/28 17:30:53;;;;;;;16.35;8.93;;;;;;;;;;4993200;28;20137;-70
2021/10/28 17:33:19;;;;;;;16.05;9.05;;;;;;;;;;4991785;28;20070;-70
2021/10/28 17:35:45;;;;;;;24.60;10.85;;;;;;;;;;4995383;28;20049;-71
2021/10/28 17:38:11;;;;;;;17.25;10.43;;;;;;;;;;4996428;28;20050;-71
2021/10/28 17:40:38;;;;;;;20.90;11.27;;;;;;;;;;4987968;28;20073;-71
2021/10/28 17:43:10;;;;;;;21.98;10.60;;;;;;;;;;4997850;28;20494;-72
2021/10/28 17:45:37;;;;;;;16.73;10.65;;;;;;;;;;4986010;28;20050;-71
2021/10/28 17:48:03;;;;;;;23.65;11.45;;;;;;;;;;4991381;28;20088;-71
2021/10/28 17:50:30;;;;;;;23.30;11.93;;;;;;;;;;4989628;28;20554;-71
2021/10/28 17:52:56;;;;;;;22.98;11.88;;;;;;;;;;4997601;28;20045;-71
2021/10/28 17:55:23;;;;;;;22.60;11.57;;;;;;;;;;4999891;28;20046;-70
2021/10/28 17:57:50;;;;;;;20.52;10.77;;;;;;;;;;4989774;28;20045;-71
2021/10/28 18:00:18;;;;;;;23.05;12.52;;;;;;;;;;4993255;28;20058;-71
2021/10/28 18:02:45;;;;;;;28.73;13.27;;;;;;;;;;4991616;28;20062;-71
2021/10/28 18:05:31;;;;;;;22.95;12.25;;;;;;;;;;5000392;28;20116;-70
2021/10/28 18:07:57;;;;;;;19.60;11.68;;;;;;;;;;4991874;28;20053;-71
2021/10/28 18:10:24;;;;;;;25.27;11.98;;;;;;;;;;4999379;28;20069;-71
2021/10/28 18:12:53;;;;;;;19.52;10.23;;;;;;;;;;4993480;28;20647;-71
2021/10/28 18:15:20;;;;;;;21.95;11.73;;;;;;;;;;4987396;28;20056;-71
2021/10/28 18:17:46;;;;;;;20.48;11.32;;;;;;;;;;4998463;28;20050;-71
2021/10/28 18:20:12;;;;;;;20.33;10.68;;;;;;;;;;4992231;28;20075;-71
2021/10/28 18:22:40;;;;;;;20.40;11.10;;;;;;;;;;5000328;28;20050;-71
2021/10/28 18:25:09;;;;;;;24.27;13.05;;;;;;;;;;4990052;28;20050;-71
2021/10/28 18:27:36;;;;;;;21.38;11.95;;;;;;;;;;4996087;28;20049;-72
2021/10/28 18:30:03;;;;;;;24.42;12.77;;;;;;;;;;4996078;28;20058;-71
2021/10/28 18:32:29;;;;;;;19.63;11.15;;;;;;;;;;4982977;28;20057;-71
2021/10/28 18:34:55;;;;;;;23.20;11.88;;;;;;;;;;4995841;28;20046;-71
2021/10/28 18:37:22;;;;;;;21.45;11.38;;;;;;;;;;4989544;28;20060;-71
2021/10/28 18:39:51;;;;;;;19.08;11.40;;;;;;;;;;4993189;28;20408;-71
2021/10/28 18:42:18;;;;;;;20.17;11.80;;;;;;;;;;4987552;28;20054;-71
2021/10/28 18:44:45;;;;;;;24.83;11.38;;;;;;;;;;4996923;28;20130;-71
2021/10/28 18:47:12;;;;;;;21.42;12.23;;;;;;;;;;4989891;28;20053;-70
2021/10/28 18:49:39;;;;;;;23.25;12.88;;;;;;;;;;4996913;28;20145;-71
2021/10/28 18:52:05;;;;;;;21.17;12.23;;;;;;;;;;4990211;28;20053;-70
2021/10/28 18:54:32;;;;;;;19.85;10.95;;;;;;;;;;4985077;28;20743;-71
2021/10/28 18:56:58;;;;;;;22.00;11.77;;;;;;;;;;4996429;28;20050;-71
2021/10/28 18:59:26;;;;;;;23.20;12.15;;;;;;;;;;4991405;28;20054;-70
2021/10/28 19:01:54;;;;;;;22.40;12.10;;;;;;;;;;4994164;28;20050;-70
2021/10/28 19:04:21;;;;;;;19.70;11.70;;;;;;;;;;4985079;28;20273;-70
2021/10/28 19:06:47;;;;;;;24.60;12.30;;;;;;;;;;4991593;28;20381;-70
2021/10/28 19:09:14;;;;;;;24.50;12.38;;;;;;;;;;4997217;28;20084;-70
2021/10/28 19:11:41;;;;;;;21.90;11.90;;;;;;;;;;4987216;28;20072;-70
2021/10/28 19:14:07;;;;;;;25.45;12.27;;;;;;;;;;4996620;28;20054;-71
2021/10/28 19:16:33;;;;;;;23.10;12.95;;;;;;;;;;4990054;28;20504;-71
2021/10/28 19:19:02;;;;;;;27.85;13.93;;;;;;;;;;4992502;28;20046;-70
2021/10/28 19:21:28;;;;;;;22.23;12.73;;;;;;;;;;4982769;28;20050;-70
2021/10/28 19:23:55;;;;;;;20.85;12.10;;;;;;;;;;4996683;28;20100;-70
2021/10/28 19:26:21;;;;;;;22.90;13.00;;;;;;;;;;4998470;28;20816;-70
2021/10/28 19:28:47;;;;;;;25.92;13.95;;;;;;;;;;4989215;28;20089;-70
2021/10/28 19:31:19;;;;;;;22.88;12.35;;;;;;;;;;4996838;28;20057;-70
2021/10/28 19:33:50;;;;;;;21.77;13.40;;;;;;;;;;4985531;28;20255;-72
2021/10/28 19:46:51;;;;;;;21.33;12.70;;;;;;;;;;4995928;28;20056;-71
2021/10/28 19:49:18;;;;;;;24.20;13.48;;;;;;;;;;4993914;28;20046;-70
2021/10/28 19:51:44;;;;;;;25.85;12.90;;;;;;;;;;4993939;28;20053;-70
2021/10/28 19:54:13;;;;;;;24.30;12.43;;;;;;;;;;5003524;28;20486;-70
2021/10/28 19:56:41;;;;;;;24.33;12.88;;;;;;;;;;4993343;28;20533;-70
2021/10/28 19:59:10;;;;;;;22.30;14.17;;;;;;;;;;4998574;28;20585;-70
2021/10/28 20:01:52;;;;;;;;;;;;;;;;;;4985527;28;20042;-70
2021/10/28 20:06:57;;;;;;;23.45;12.40;;;;;;;;;;4991710;28;20511;-70
2021/10/28 20:20:11;;;;;;;34.25;18.60;;;;;;;;;;4990449;28;20081;-69
2021/10/28 20:22:39;;;;;;;38.28;20.08;;;;;;;;;;5000552;28;20054;-70
2021/10/28 20:25:07;;;;;;;36.53;20.00;;;;;;;;;;4991400;28;20050;-71
2021/10/28 20:27:33;;;;;;;27.35;15.13;;;;;;;;;;4994880;28;20273;-70
2021/10/28 20:30:00;;;;;;;25.98;14.93;;;;;;;;;;4987350;28;20499;-70
2021/10/28 20:32:26;;;;;;;28.15;14.75;;;;;;;;;;4998498;28;20337;-70
2021/10/28 20:35:12;;;;;;;30.35;15.35;;;;;;;;;;4999558;28;20379;-70
2021/10/28 20:37:39;;;;;;;27.40;15.30;;;;;;;;;;4999585;28;20387;-70
2021/10/28 20:40:07;;;;;;;31.17;14.63;;;;;;;;;;4998521;28;20050;-70
2021/10/28 20:42:37;;;;;;;26.02;13.50;;;;;;;;;;4985884;28;20756;-70
2021/10/28 20:45:10;;;;;;;26.13;14.98;;;;;;;;;;4995636;28;20084;-70
2021/10/28 20:47:40;;;;;;;53.08;26.77;;;;;;;;;;4990194;28;20061;-70
2021/10/28 20:50:08;;;;;;;36.10;19.35;;;;;;;;;;4999528;28;20049;-70
2021/10/28 20:52:35;;;;;;;36.17;17.50;;;;;;;;;;4994706;28;20058;-70
2021/10/28 20:55:01;;;;;;;27.50;14.98;;;;;;;;;;4997719;28;20667;-70
2021/10/28 20:57:27;;;;;;;27.45;14.65;;;;;;;;;;4991114;28;20050;-69
2021/10/28 20:59:54;;;;;;;25.40;13.40;;;;;;;;;;4990004;28;20418;-70
2021/10/28 21:02:20;;;;;;;24.45;13.88;;;;;;;;;;4998927;28;21016;-70
2021/10/28 21:04:47;;;;;;;27.45;13.75;;;;;;;;;;4990836;28;20065;-70
2021/10/28 21:07:14;;;;;;;27.40;14.60;;;;;;;;;;4998683;28;20057;-70
2021/10/28 21:09:40;;;;;;;24.02;13.65;;;;;;;;;;4985969;28;20054;-70
2021/10/28 21:12:07;;;;;;;27.42;14.73;;;;;;;;;;4986052;28;20034;-70
2021/10/28 21:14:33;;;;;;;31.10;14.40;;;;;;;;;;4996169;28;20050;-70
2021/10/28 21:17:00;;;;;;;28.67;14.23;;;;;;;;;;4990481;28;20065;-70
2021/10/28 21:19:26;;;;;;;22.75;12.32;;;;;;;;;;4995726;28;20558;-70
2021/10/28 21:21:52;;;;;;;27.95;14.43;;;;;;;;;;4990271;28;20042;-70
2021/10/28 21:24:19;;;;;;;25.92;14.48;;;;;;;;;;4995734;28;20400;-70
2021/10/28 21:26:45;;;;;;;28.73;14.15;;;;;;;;;;4992454;28;20696;-70
2021/10/28 21:29:11;;;;;;;27.80;15.13;;;;;;;;;;4993744;28;20062;-70
2021/10/28 21:31:38;;;;;;;29.15;14.95;;;;;;;;;;4999918;28;20053;-70
2021/10/28 21:34:04;;;;;;;31.70;15.25;;;;;;;;;;4992794;28;20080;-70
2021/10/28 21:36:31;;;;;;;27.70;14.07;;;;;;;;;;5001112;28;20050;-69
2021/10/28 21:38:57;;;;;;;30.95;15.63;;;;;;;;;;4986359;28;20054;-70
2021/10/28 21:41:24;;;;;;;28.50;15.63;;;;;;;;;;4996166;28;20046;-71
2021/10/28 21:43:50;;;;;;;25.77;13.45;;;;;;;;;;4999675;28;20092;-70
2021/10/28 21:46:17;;;;;;;27.27;14.73;;;;;;;;;;4990981;28;20050;-70
2021/10/28 21:48:45;;;;;;;28.60;14.85;;;;;;;;;;4999140;28;20056;-70
2021/10/28 21:51:12;;;;;;;34.97;16.88;;;;;;;;;;4982862;28;20046;-70
2021/10/28 21:53:40;;;;;;;47.28;21.48;;;;;;;;;;4985419;28;20260;-70
2021/10/28 22:01:52;;;;;;;25.92;14.80;;;;;;;;;;4991667;28;20418;-69
2021/10/28 22:04:14;;;;;;;32.03;16.00;;;;;;;;;;4989296;28;20042;-70
2021/10/28 22:26:08;;;;;;;33.15;16.48;;;;;;;;;;4998108;28;20080;-71
2021/10/28 22:28:34;;;;;;;33.63;16.33;;;;;;;;;;4998091;28;20054;-70
2021/10/28 22:31:00;;;;;;;36.13;17.40;;;;;;;;;;4990885;28;20050;-70
2021/10/28 22:33:27;;;;;;;34.42;16.98;;;;;;;;;;4994278;28;20080;-70
2021/10/28 22:35:59;;;;;;;35.75;16.90;;;;;;;;;;4990629;28;20083;-70
2021/10/28 22:38:31;;;;;;;33.50;16.92;;;;;;;;;;4997666;28;20077;-71
2021/10/28 22:40:58;;;;;;;34.70;16.42;;;;;;;;;;4991226;28;20050;-71
2021/10/28 22:43:25;;;;;;;36.58;16.30;;;;;;;;;;4997753;28;20061;-71
2021/10/28 22:45:51;;;;;;;29.48;16.50;;;;;;;;;;4995625;28;20064;-70
2021/10/28 22:48:18;;;;;;;34.47;16.25;;;;;;;;;;4986409;28;20143;-71
2021/10/28 22:50:44;;;;;;;33.58;17.73;;;;;;;;;;4998918;28;20049;-71
2021/10/28 22:53:11;;;;;;;34.22;17.40;;;;;;;;;;4990650;28;20147;-71
2021/10/28 22:55:40;;;;;;;33.60;16.35;;;;;;;;;;4997337;28;20616;-71
2021/10/28 22:58:15;;;;;;;31.45;16.30;;;;;;;;;;4994546;28;20580;-71
2021/10/28 23:03:22;;;;;;;30.85;16.73;;;;;;;;;;4995618;28;20054;-71
2021/10/28 23:16:25;;;;;;;31.38;16.20;;;;;;;;;;4987869;28;20057;-69
2021/10/28 23:21:36;;;;;;;38.35;17.38;;;;;;;;;;4993904;28;20061;-70
2021/10/28 23:24:03;;;;;;;35.63;17.90;;;;;;;;;;5002676;28;20475;-71
2021/10/28 23:26:29;;;;;;;37.30;18.45;;;;;;;;;;4992379;28;20038;-70
2021/10/28 23:28:55;;;;;;;31.80;16.10;;;;;;;;;;4995883;28;20046;-69
2021/10/28 23:31:22;;;;;;;38.28;18.55;;;;;;;;;;4999395;28;20081;-70
2021/10/28 23:33:48;;;;;;;34.22;16.35;;;;;;;;;;4993898;28;20163;-69
2021/10/28 23:36:14;;;;;;;36.08;17.63;;;;;;;;;;5002794;28;20053;-71
2021/10/28 23:38:41;;;;;;;30.65;15.88;;;;;;;;;;4994863;28;20049;-72
2021/10/28 23:41:07;;;;;;;33.95;17.67;;;;;;;;;;4998975;28;20128;-70
2021/10/28 23:43:33;;;;;;;32.90;16.48;;;;;;;;;;4994043;28;20054;-70
2021/10/28 23:46:00;;;;;;;32.42;15.65;;;;;;;;;;4999655;28;20069;-70
2021/10/28 23:48:26;;;;;;;34.30;16.20;;;;;;;;;;5001043;28;20054;-71
2021/10/28 23:50:53;;;;;;;32.40;16.67;;;;;;;;;;4989346;28;20486;-71
2021/10/28 23:53:20;;;;;;;32.95;15.90;;;;;;;;;;4994048;28;20046;-70
2021/10/28 23:55:46;;;;;;;25.67;13.55;;;;;;;;;;4987353;28;20248;-71
2021/10/28 23:58:12;;;;;;;28.77;14.90;;;;;;;;;;5002587;28;20053;-71
